createdAt,value
2023-02-27T00:02:43.590Z,9.3
2023-02-27T00:08:21.175Z,9.2
2023-02-27T00:13:58.627Z,9.3
2023-02-27T00:19:21.634Z,9.5
2023-02-27T00:25:17.784Z,9.6
2023-02-27T00:31:10.335Z,9.7
2023-02-27T00:37:02.817Z,9.8
2023-02-27T00:42:55.393Z,9.6
2023-02-27T00:48:32.524Z,9.5
2023-02-27T00:54:09.151Z,9.8
2023-02-27T00:59:46.628Z,9.7
2023-02-27T01:05:41.485Z,9.5
2023-02-27T01:11:33.450Z,9.4
2023-02-27T01:17:11.276Z,9.4
2023-02-27T01:22:48.405Z,9.3
2023-02-27T01:28:41.198Z,9.4
2023-02-27T01:34:34.987Z,9.4
2023-02-27T01:40:27.591Z,9.4
2023-02-27T01:46:20.894Z,9.4
2023-02-27T01:52:13.647Z,9.5
2023-02-27T01:58:06.333Z,9.4
2023-02-27T02:03:59.791Z,9.4
2023-02-27T02:09:52.715Z,9.4
2023-02-27T02:15:44.863Z,9.4
2023-02-27T02:21:38.536Z,9.1
2023-02-27T02:27:31.702Z,8.7
2023-02-27T02:33:25.957Z,8.4
2023-02-27T02:39:18.279Z,8.3
2023-02-27T02:45:11.817Z,8
2023-02-27T02:50:48.688Z,7.5
2023-02-27T02:56:45.312Z,7
2023-02-27T03:02:38.311Z,6.6
2023-02-27T03:08:14.908Z,6.3
2023-02-27T03:14:11.401Z,6.1
2023-02-27T03:20:03.589Z,5.9
2023-02-27T03:25:58.394Z,5.7
2023-02-27T03:31:52.219Z,5.6
2023-02-27T03:37:44.910Z,5.4
2023-02-27T03:43:22.256Z,5.3
2023-02-27T03:49:14.804Z,5.1
2023-02-27T03:54:51.998Z,5
2023-02-27T04:00:44.559Z,4.9
2023-02-27T04:06:37.205Z,4.8
2023-02-27T04:12:29.687Z,4.6
2023-02-27T04:18:23.577Z,4.6
2023-02-27T04:24:17.509Z,4.4
2023-02-27T04:30:09.450Z,4.4
2023-02-27T04:36:02.868Z,4.3
2023-02-27T04:41:54.747Z,4.4
2023-02-27T04:47:35.274Z,4.4
2023-02-27T04:53:30.735Z,4.4
2023-02-27T04:59:23.389Z,4.4
2023-02-27T05:05:16.588Z,4.4
2023-02-27T05:11:08.362Z,4.4
2023-02-27T05:17:02.817Z,4.4
2023-02-27T05:22:41.457Z,4.4
2023-02-27T05:28:18.708Z,4.4
2023-02-27T05:34:12.156Z,4.4
2023-02-27T05:40:04.620Z,4.4
2023-02-27T05:45:57.964Z,4.4
2023-02-27T05:51:49.697Z,4.4
2023-02-27T05:57:41.689Z,4.4
2023-02-27T06:03:34.233Z,4.5
2023-02-27T06:09:27.919Z,4.6
2023-02-27T06:15:05.624Z,4.7
2023-02-27T06:20:58.756Z,5
2023-02-27T06:26:51.871Z,5.6
2023-02-27T06:32:47.677Z,6.5
2023-02-27T06:38:39.703Z,8.3
2023-02-27T06:44:32.148Z,9.8
2023-02-27T06:50:26.243Z,10.8
2023-02-27T06:56:18.562Z,11.5
2023-02-27T07:02:10.712Z,12.9
2023-02-27T07:09:23.915Z,15.3
2023-02-27T07:15:18.836Z,16.5
2023-02-27T07:21:11.551Z,19.8
2023-02-27T07:27:04.770Z,23.9
2023-02-27T07:32:58.423Z,29.8
2023-02-27T07:38:50.497Z,33.6
2023-02-27T07:44:55.037Z,37.8
2023-02-27T07:50:32.726Z,41.1
2023-02-27T07:56:25.952Z,44.6
2023-02-27T08:02:19.665Z,47.4
2023-02-27T08:08:13.392Z,49.2
2023-02-27T08:14:34.721Z,47.3
2023-02-27T08:20:28.989Z,46.4
2023-02-27T08:26:06.948Z,44.5
2023-02-27T08:32:01.913Z,40.5
2023-02-27T08:38:06.814Z,38.4
2023-02-27T08:44:02.703Z,42.2
2023-02-27T08:49:41.260Z,45.6
2023-02-27T08:55:34.868Z,48.6
2023-02-27T09:01:29.371Z,54.1
2023-02-27T09:07:23.276Z,47.4
2023-02-27T09:13:01.620Z,45.1
2023-02-27T09:18:55.736Z,45.3
2023-02-27T09:24:54.698Z,44.5
2023-02-27T09:31:00.598Z,43.8
2023-02-27T09:36:54.619Z,47.4
2023-02-27T09:42:46.821Z,51.6
2023-02-27T09:48:54.376Z,51.8
2023-02-27T09:54:48.152Z,43.3
2023-02-27T10:00:41.901Z,43.7
2023-02-27T10:06:35.212Z,46.8
2023-02-27T10:12:27.553Z,48.5
2023-02-27T10:18:33.997Z,49.4
2023-02-27T10:24:11.521Z,54.1
2023-02-27T10:30:20.386Z,53.4
2023-02-27T10:36:07.820Z,46.9
2023-02-27T10:42:10.055Z,51.6
2023-02-27T10:48:04.681Z,56.8
2023-02-27T10:53:58.319Z,56.1
2023-02-27T10:59:20.500Z,55.8
2023-02-27T11:04:59.120Z,56.4
2023-02-27T11:10:52.137Z,57.5
2023-02-27T11:16:46.076Z,54.9
2023-02-27T11:22:23.302Z,58.3
2023-02-27T11:28:15.428Z,59.6
2023-02-27T11:34:08.446Z,59
2023-02-27T11:39:30.800Z,50.1
2023-02-27T11:46:50.591Z,45.5
2023-02-27T11:52:44.802Z,48.3
2023-02-27T11:58:37.561Z,52.5
2023-02-27T12:04:30.204Z,50.1
2023-02-27T12:10:07.829Z,47.1
2023-02-27T12:16:01.019Z,49.1
2023-02-27T12:21:39.050Z,51.3
2023-02-27T12:27:32.643Z,52.1
2023-02-27T12:33:26.646Z,58.6
2023-02-27T12:39:20.389Z,50.8
2023-02-27T12:44:57.339Z,44.6
2023-02-27T12:50:51.378Z,40.8
2023-02-27T12:56:46.402Z,37.1
2023-02-27T13:02:23.717Z,34.3
2023-02-27T13:08:17.009Z,31.8
2023-02-27T13:14:09.907Z,30.3
2023-02-27T13:19:47.144Z,28.8
2023-02-27T13:25:41.731Z,27
2023-02-27T13:31:36.115Z,25.8
2023-02-27T13:37:47.149Z,24.4
2023-02-27T13:43:51.295Z,23.4
2023-02-27T13:49:54.090Z,22.1
2023-02-27T13:55:44.076Z,20.8
2023-02-27T14:01:22.837Z,19.3
2023-02-27T14:07:14.327Z,17.9
2023-02-27T14:13:02.049Z,16.9
2023-02-27T14:18:52.067Z,15.9
2023-02-27T14:25:01.371Z,14.9
2023-02-27T14:30:55.115Z,13.8
2023-02-27T14:37:04.991Z,12.9
2023-02-27T14:42:49.892Z,12.1
2023-02-27T14:48:45.394Z,11.4
2023-02-27T14:54:38.654Z,10.8
2023-02-27T15:00:40.388Z,10.1
2023-02-27T15:06:36.204Z,9.4
2023-02-27T15:12:37.360Z,8.8
2023-02-27T15:18:39.740Z,8.4
2023-02-27T15:24:23.313Z,8
2023-02-27T15:30:27.402Z,7.7
2023-02-27T15:36:20.575Z,7.4
2023-02-27T15:42:00.726Z,7.3
2023-02-27T15:47:53.492Z,7.1
2023-02-27T15:53:46.388Z,6.9
2023-02-27T15:59:34.311Z,6.7
2023-02-27T16:05:15.353Z,6.6
2023-02-27T16:11:08.565Z,6.4
2023-02-27T16:17:02.605Z,6.4
2023-02-27T16:22:55.931Z,6.3
2023-02-27T16:28:49.063Z,6.1
2023-02-27T16:34:35.500Z,6
2023-02-27T16:40:38.526Z,5.8
2023-02-27T16:46:17.202Z,5.6
2023-02-27T16:52:25.764Z,5.4
2023-02-27T16:58:25.603Z,5.3
2023-02-27T17:04:25.487Z,5.2
2023-02-27T17:10:02.138Z,5.1
2023-02-27T17:15:38.913Z,5.1
2023-02-27T17:21:33.920Z,5.1
2023-02-27T17:27:27.513Z,5.1
2023-02-27T17:33:21.559Z,5.1
2023-02-27T17:39:14.537Z,5
2023-02-27T17:44:51.647Z,5
2023-02-27T17:50:45.871Z,4.9
2023-02-27T17:56:38.286Z,4.8
2023-02-27T18:02:31.345Z,4.6
2023-02-27T18:08:23.730Z,4.4
2023-02-27T18:14:17.209Z,4.4
2023-02-27T18:20:11.280Z,4.2
2023-02-27T18:26:04.292Z,4
2023-02-27T18:32:06.112Z,3.9
2023-02-27T18:37:59.496Z,3.9
2023-02-27T18:43:52.684Z,3.9
2023-02-27T18:49:47.844Z,3.9
2023-02-27T18:55:39.689Z,3.9
2023-02-27T19:01:32.559Z,3.9
2023-02-27T19:07:29.233Z,3.9
2023-02-27T19:13:21.166Z,3.9
2023-02-27T19:19:14.324Z,3.9
2023-02-27T19:25:06.903Z,4
2023-02-27T19:30:44.950Z,4
2023-02-27T19:36:39.207Z,4.1
2023-02-27T19:42:16.436Z,4
2023-02-27T19:48:10.110Z,4
2023-02-27T19:54:02.793Z,4
2023-02-27T19:59:56.259Z,3.9
2023-02-27T20:05:49.865Z,3.8
2023-02-27T20:11:42.514Z,3.7
2023-02-27T20:17:35.319Z,3.6
2023-02-27T20:23:28.388Z,3.5
2023-02-27T20:29:21.776Z,3.5
2023-02-27T20:35:15.693Z,3.5
2023-02-27T20:41:08.430Z,3.4
2023-02-27T20:47:00.462Z,3.4
2023-02-27T20:52:53.936Z,3.4
2023-02-27T20:58:46.403Z,3.5
2023-02-27T21:04:48.222Z,3.6
2023-02-27T21:10:43.908Z,3.6
2023-02-27T21:16:36.258Z,3.7
2023-02-27T21:22:28.775Z,3.8
2023-02-27T21:28:21.929Z,3.9
2023-02-27T21:34:16.651Z,4
2023-02-27T21:40:10.161Z,4.1
2023-02-27T21:46:01.803Z,4.3
2023-02-27T21:52:12.292Z,4.4
2023-02-27T21:58:04.663Z,4.5
2023-02-27T22:03:57.570Z,4.6
2023-02-27T22:09:50.501Z,4.7
2023-02-27T22:15:44.043Z,4.8
2023-02-27T22:21:36.166Z,4.7
2023-02-27T22:27:28.703Z,4.6
2023-02-27T22:33:23.964Z,4.6
2023-02-27T22:39:16.793Z,4.5
2023-02-27T22:45:09.370Z,4.4
2023-02-27T22:51:01.706Z,4.4
2023-02-27T22:56:39.683Z,4.3
2023-02-27T23:02:34.054Z,4.3
2023-02-27T23:08:27.582Z,4.3
2023-02-27T23:14:21.100Z,4.3
2023-02-27T23:20:27.649Z,4.3
2023-02-27T23:26:20.175Z,4.4
2023-02-27T23:32:13.155Z,4.4
2023-02-27T23:38:14.483Z,4.4
2023-02-27T23:44:06.686Z,4.5
2023-02-27T23:49:58.636Z,4.4
2023-02-27T23:55:51.905Z,4.4
